sensor_id;sensor_type;location;lat;lon;timestamp;pressure;altitude;pressure_sealevel;temperature;humidity
55373;BME280;70018;47.838;16.490;2024-01-30T00:02:02;101247.22;;;-0.48;96.07
55373;BME280;70018;47.838;16.490;2024-01-30T00:04:29;101253.38;;;-0.52;96.34
55373;BME280;70018;47.838;16.490;2024-01-30T00:06:56;101260.19;;;-0.50;96.72
55373;BME280;70018;47.838;16.490;2024-01-30T00:09:23;101258.44;;;-0.56;95.88
55373;BME280;70018;47.838;16.490;2024-01-30T00:11:50;101268.03;;;-0.65;96.25
55373;BME280;70018;47.838;16.490;2024-01-30T00:14:17;101258.25;;;-0.66;96.23
55373;BME280;70018;47.838;16.490;2024-01-30T00:16:44;101256.94;;;-0.63;96.14
55373;BME280;70018;47.838;16.490;2024-01-30T00:19:11;101260.69;;;-0.65;96.74
55373;BME280;70018;47.838;16.490;2024-01-30T00:21:38;101265.53;;;-0.67;95.73
55373;BME280;70018;47.838;16.490;2024-01-30T00:24:05;101259.81;;;-0.70;95.99
55373;BME280;70018;47.838;16.490;2024-01-30T00:26:32;101262.66;;;-0.77;96.05
55373;BME280;70018;47.838;16.490;2024-01-30T00:28:59;101262.31;;;-0.80;96.26
55373;BME280;70018;47.838;16.490;2024-01-30T00:31:26;101259.28;;;-0.84;96.71
55373;BME280;70018;47.838;16.490;2024-01-30T00:33:52;101267.63;;;-0.85;96.90
55373;BME280;70018;47.838;16.490;2024-01-30T00:36:19;101263.38;;;-0.81;96.58
55373;BME280;70018;47.838;16.490;2024-01-30T00:38:46;101266.91;;;-0.81;97.21
55373;BME280;70018;47.838;16.490;2024-01-30T00:41:13;101264.53;;;-0.77;96.76
55373;BME280;70018;47.838;16.490;2024-01-30T00:43:40;101265.91;;;-0.75;96.98
55373;BME280;70018;47.838;16.490;2024-01-30T00:46:07;101273.91;;;-0.68;98.13
55373;BME280;70018;47.838;16.490;2024-01-30T00:48:33;101262.00;;;-0.67;97.68
55373;BME280;70018;47.838;16.490;2024-01-30T00:51:00;101259.91;;;-0.65;98.08
55373;BME280;70018;47.838;16.490;2024-01-30T00:53:27;101260.47;;;-0.63;97.88
55373;BME280;70018;47.838;16.490;2024-01-30T00:55:53;101265.88;;;-0.63;98.00
55373;BME280;70018;47.838;16.490;2024-01-30T00:58:20;101257.38;;;-0.55;98.69
55373;BME280;70018;47.838;16.490;2024-01-30T01:00:47;101250.06;;;-0.54;98.02
55373;BME280;70018;47.838;16.490;2024-01-30T01:03:13;101255.91;;;-0.46;98.80
55373;BME280;70018;47.838;16.490;2024-01-30T01:05:40;101252.84;;;-0.49;98.51
55373;BME280;70018;47.838;16.490;2024-01-30T01:08:07;101254.03;;;-0.45;98.00
55373;BME280;70018;47.838;16.490;2024-01-30T01:10:35;101251.91;;;-0.43;97.97
55373;BME280;70018;47.838;16.490;2024-01-30T01:13:02;101247.41;;;-0.38;97.81
55373;BME280;70018;47.838;16.490;2024-01-30T01:15:29;101256.56;;;-0.39;97.96
55373;BME280;70018;47.838;16.490;2024-01-30T01:17:56;101251.72;;;-0.37;97.77
55373;BME280;70018;47.838;16.490;2024-01-30T01:20:23;101251.63;;;-0.42;97.46
55373;BME280;70018;47.838;16.490;2024-01-30T01:22:49;101245.09;;;-0.46;96.40
55373;BME280;70018;47.838;16.490;2024-01-30T01:25:16;101255.34;;;-0.48;96.34
55373;BME280;70018;47.838;16.490;2024-01-30T01:27:43;101245.66;;;-0.44;96.98
55373;BME280;70018;47.838;16.490;2024-01-30T01:30:17;101251.16;;;-0.39;97.55
55373;BME280;70018;47.838;16.490;2024-01-30T01:32:49;101250.91;;;-0.37;97.61
55373;BME280;70018;47.838;16.490;2024-01-30T01:35:22;101238.19;;;-0.37;97.34
55373;BME280;70018;47.838;16.490;2024-01-30T01:37:51;101226.41;;;-0.31;98.41
55373;BME280;70018;47.838;16.490;2024-01-30T01:40:26;101231.91;;;-0.26;97.48
55373;BME280;70018;47.838;16.490;2024-01-30T01:42:55;101223.91;;;-0.32;97.22
55373;BME280;70018;47.838;16.490;2024-01-30T01:45:22;101217.19;;;-0.30;97.14
55373;BME280;70018;47.838;16.490;2024-01-30T01:47:51;101227.94;;;-0.35;97.16
55373;BME280;70018;47.838;16.490;2024-01-30T01:50:20;101215.72;;;-0.37;96.60
55373;BME280;70018;47.838;16.490;2024-01-30T01:52:49;101217.38;;;-0.36;97.38
55373;BME280;70018;47.838;16.490;2024-01-30T01:55:17;101216.06;;;-0.34;97.69
55373;BME280;70018;47.838;16.490;2024-01-30T01:57:48;101220.00;;;-0.41;97.21
55373;BME280;70018;47.838;16.490;2024-01-30T02:00:15;101209.41;;;-0.43;97.40
55373;BME280;70018;47.838;16.490;2024-01-30T02:02:43;101209.66;;;-0.44;97.26
55373;BME280;70018;47.838;16.490;2024-01-30T02:05:12;101213.56;;;-0.52;97.25
55373;BME280;70018;47.838;16.490;2024-01-30T02:07:38;101214.97;;;-0.49;97.13
55373;BME280;70018;47.838;16.490;2024-01-30T02:10:07;101208.69;;;-0.55;96.90
55373;BME280;70018;47.838;16.490;2024-01-30T02:12:34;101219.97;;;-0.58;97.26
55373;BME280;70018;47.838;16.490;2024-01-30T02:15:01;101218.81;;;-0.62;97.32
55373;BME280;70018;47.838;16.490;2024-01-30T02:17:27;101227.03;;;-0.57;97.59
55373;BME280;70018;47.838;16.490;2024-01-30T02:19:54;101221.03;;;-0.59;97.84
55373;BME280;70018;47.838;16.490;2024-01-30T02:22:22;101217.41;;;-0.65;97.27
55373;BME280;70018;47.838;16.490;2024-01-30T02:24:49;101217.50;;;-0.59;98.28
55373;BME280;70018;47.838;16.490;2024-01-30T02:27:16;101219.06;;;-0.63;97.39
55373;BME280;70018;47.838;16.490;2024-01-30T02:29:42;101221.78;;;-0.63;97.70
55373;BME280;70018;47.838;16.490;2024-01-30T02:32:09;101216.03;;;-0.67;97.74
55373;BME280;70018;47.838;16.490;2024-01-30T02:34:36;101215.44;;;-0.69;97.84
55373;BME280;70018;47.838;16.490;2024-01-30T02:37:03;101223.47;;;-0.74;97.69
55373;BME280;70018;47.838;16.490;2024-01-30T02:39:29;101213.22;;;-0.72;97.46
55373;BME280;70018;47.838;16.490;2024-01-30T02:41:56;101222.16;;;-0.72;98.27
55373;BME280;70018;47.838;16.490;2024-01-30T02:44:23;101205.72;;;-0.70;98.11
55373;BME280;70018;47.838;16.490;2024-01-30T02:46:50;101209.22;;;-0.70;98.59
55373;BME280;70018;47.838;16.490;2024-01-30T02:49:17;101207.25;;;-0.74;97.92
55373;BME280;70018;47.838;16.490;2024-01-30T02:51:43;101203.97;;;-0.76;97.99
55373;BME280;70018;47.838;16.490;2024-01-30T02:54:10;101201.75;;;-0.79;98.08
55373;BME280;70018;47.838;16.490;2024-01-30T02:56:37;101205.19;;;-0.84;98.02
55373;BME280;70018;47.838;16.490;2024-01-30T02:59:03;101208.13;;;-0.85;99.09
55373;BME280;70018;47.838;16.490;2024-01-30T03:01:30;101203.22;;;-0.88;98.23
55373;BME280;70018;47.838;16.490;2024-01-30T03:03:58;101199.44;;;-0.87;98.56
55373;BME280;70018;47.838;16.490;2024-01-30T03:06:25;101199.94;;;-0.90;98.60
55373;BME280;70018;47.838;16.490;2024-01-30T03:08:51;101196.06;;;-0.94;98.35
55373;BME280;70018;47.838;16.490;2024-01-30T03:11:18;101195.97;;;-0.99;98.73
55373;BME280;70018;47.838;16.490;2024-01-30T03:13:45;101199.50;;;-0.99;98.99
55373;BME280;70018;47.838;16.490;2024-01-30T03:16:12;101191.06;;;-1.02;98.81
55373;BME280;70018;47.838;16.490;2024-01-30T03:18:38;101190.47;;;-1.04;99.27
55373;BME280;70018;47.838;16.490;2024-01-30T03:21:05;101192.50;;;-1.11;98.95
55373;BME280;70018;47.838;16.490;2024-01-30T03:23:32;101200.38;;;-1.10;98.97
55373;BME280;70018;47.838;16.490;2024-01-30T03:25:59;101201.19;;;-1.09;99.36
55373;BME280;70018;47.838;16.490;2024-01-30T03:28:25;101199.47;;;-1.15;99.43
55373;BME280;70018;47.838;16.490;2024-01-30T03:30:52;101189.59;;;-1.21;98.72
55373;BME280;70018;47.838;16.490;2024-01-30T03:33:19;101191.16;;;-1.25;99.10
55373;BME280;70018;47.838;16.490;2024-01-30T03:35:46;101193.28;;;-1.27;99.75
55373;BME280;70018;47.838;16.490;2024-01-30T03:38:12;101191.16;;;-1.25;100.00
55373;BME280;70018;47.838;16.490;2024-01-30T03:40:39;101185.75;;;-1.25;99.34
55373;BME280;70018;47.838;16.490;2024-01-30T03:43:06;101197.72;;;-1.21;100.00
55373;BME280;70018;47.838;16.490;2024-01-30T03:45:32;101183.41;;;-1.34;99.62
55373;BME280;70018;47.838;16.490;2024-01-30T03:47:59;101189.06;;;-1.35;99.70
55373;BME280;70018;47.838;16.490;2024-01-30T03:50:26;101180.63;;;-1.39;100.00
55373;BME280;70018;47.838;16.490;2024-01-30T03:52:53;101190.84;;;-1.41;100.00
55373;BME280;70018;47.838;16.490;2024-01-30T03:55:19;101190.59;;;-1.39;100.00
55373;BME280;70018;47.838;16.490;2024-01-30T03:57:46;101190.75;;;-1.46;100.00
55373;BME280;70018;47.838;16.490;2024-01-30T04:00:14;101188.50;;;-1.49;100.00
55373;BME280;70018;47.838;16.490;2024-01-30T04:02:40;101189.50;;;-1.55;100.00
55373;BME280;70018;47.838;16.490;2024-01-30T04:05:07;101186.78;;;-1.55;100.00
55373;BME280;70018;47.838;16.490;2024-01-30T04:07:34;101173.38;;;-1.50;100.00
55373;BME280;70018;47.838;16.490;2024-01-30T04:10:02;101176.66;;;-1.48;100.00
55373;BME280;70018;47.838;16.490;2024-01-30T04:12:32;101174.53;;;-1.46;100.00
55373;BME280;70018;47.838;16.490;2024-01-30T04:14:58;101173.50;;;-1.45;100.00
55373;BME280;70018;47.838;16.490;2024-01-30T04:17:25;101168.09;;;-1.45;100.00
55373;BME280;70018;47.838;16.490;2024-01-30T04:19:52;101161.28;;;-1.47;100.00
55373;BME280;70018;47.838;16.490;2024-01-30T04:22:19;101165.13;;;-1.43;100.00
55373;BME280;70018;47.838;16.490;2024-01-30T04:24:46;101164.19;;;-1.49;100.00
55373;BME280;70018;47.838;16.490;2024-01-30T04:27:13;101163.53;;;-1.56;100.00
55373;BME280;70018;47.838;16.490;2024-01-30T04:29:39;101160.25;;;-1.58;100.00
55373;BME280;70018;47.838;16.490;2024-01-30T04:32:06;101172.00;;;-1.64;100.00
55373;BME280;70018;47.838;16.490;2024-01-30T04:34:33;101170.84;;;-1.68;100.00
55373;BME280;70018;47.838;16.490;2024-01-30T04:37:00;101177.06;;;-1.67;100.00
55373;BME280;70018;47.838;16.490;2024-01-30T04:39:26;101171.06;;;-1.69;100.00
55373;BME280;70018;47.838;16.490;2024-01-30T04:41:53;101189.75;;;-1.68;100.00
55373;BME280;70018;47.838;16.490;2024-01-30T04:44:20;101188.34;;;-1.70;100.00
55373;BME280;70018;47.838;16.490;2024-01-30T04:46:47;101187.38;;;-1.64;100.00
55373;BME280;70018;47.838;16.490;2024-01-30T04:49:14;101190.06;;;-1.64;100.00
55373;BME280;70018;47.838;16.490;2024-01-30T04:51:41;101183.28;;;-1.67;100.00
55373;BME280;70018;47.838;16.490;2024-01-30T04:54:07;101190.78;;;-1.69;100.00
55373;BME280;70018;47.838;16.490;2024-01-30T04:56:34;101184.81;;;-1.71;100.00
55373;BME280;70018;47.838;16.490;2024-01-30T04:59:02;101196.66;;;-1.72;100.00
55373;BME280;70018;47.838;16.490;2024-01-30T05:01:29;101195.88;;;-1.72;100.00
55373;BME280;70018;47.838;16.490;2024-01-30T05:03:56;101196.66;;;-1.72;100.00
55373;BME280;70018;47.838;16.490;2024-01-30T05:06:26;101201.50;;;-1.74;100.00
55373;BME280;70018;47.838;16.490;2024-01-30T05:08:53;101202.69;;;-1.70;100.00
55373;BME280;70018;47.838;16.490;2024-01-30T05:11:20;101206.28;;;-1.64;100.00
55373;BME280;70018;47.838;16.490;2024-01-30T05:13:47;101199.38;;;-1.60;100.00
55373;BME280;70018;47.838;16.490;2024-01-30T05:16:13;101203.00;;;-1.55;100.00
55373;BME280;70018;47.838;16.490;2024-01-30T05:18:40;101196.28;;;-1.52;100.00
55373;BME280;70018;47.838;16.490;2024-01-30T05:21:07;101203.56;;;-1.53;100.00
55373;BME280;70018;47.838;16.490;2024-01-30T05:23:34;101194.16;;;-1.50;100.00
55373;BME280;70018;47.838;16.490;2024-01-30T05:26:01;101202.50;;;-1.52;100.00
55373;BME280;70018;47.838;16.490;2024-01-30T05:28:29;101192.88;;;-1.48;100.00
55373;BME280;70018;47.838;16.490;2024-01-30T05:30:56;101195.91;;;-1.44;100.00
55373;BME280;70018;47.838;16.490;2024-01-30T05:33:23;101194.69;;;-1.37;100.00
55373;BME280;70018;47.838;16.490;2024-01-30T05:35:50;101202.22;;;-1.39;100.00
55373;BME280;70018;47.838;16.490;2024-01-30T05:38:20;101194.69;;;-1.37;100.00
55373;BME280;70018;47.838;16.490;2024-01-30T05:40:47;101190.84;;;-1.41;100.00
55373;BME280;70018;47.838;16.490;2024-01-30T05:43:14;101182.28;;;-1.38;100.00
55373;BME280;70018;47.838;16.490;2024-01-30T05:45:41;101191.53;;;-1.34;100.00
55373;BME280;70018;47.838;16.490;2024-01-30T05:48:08;101197.75;;;-1.33;100.00
55373;BME280;70018;47.838;16.490;2024-01-30T05:50:34;101196.81;;;-1.39;100.00
55373;BME280;70018;47.838;16.490;2024-01-30T05:53:01;101196.16;;;-1.46;100.00
55373;BME280;70018;47.838;16.490;2024-01-30T05:55:28;101195.22;;;-1.51;100.00
55373;BME280;70018;47.838;16.490;2024-01-30T05:57:55;101199.22;;;-1.54;100.00
55373;BME280;70018;47.838;16.490;2024-01-30T06:00:22;101191.72;;;-1.63;100.00
55373;BME280;70018;47.838;16.490;2024-01-30T06:02:48;101200.31;;;-1.66;100.00
55373;BME280;70018;47.838;16.490;2024-01-30T06:05:15;101195.38;;;-1.69;100.00
55373;BME280;70018;47.838;16.490;2024-01-30T06:07:42;101197.16;;;-1.75;100.00
55373;BME280;70018;47.838;16.490;2024-01-30T06:10:09;101201.75;;;-1.75;100.00
55373;BME280;70018;47.838;16.490;2024-01-30T06:12:36;101201.50;;;-1.74;100.00
55373;BME280;70018;47.838;16.490;2024-01-30T06:15:03;101193.38;;;-1.74;100.00
55373;BME280;70018;47.838;16.490;2024-01-30T06:17:30;101196.91;;;-1.73;100.00
55373;BME280;70018;47.838;16.490;2024-01-30T06:19:57;101198.78;;;-1.74;100.00
55373;BME280;70018;47.838;16.490;2024-01-30T06:22:23;101200.44;;;-1.73;100.00
55373;BME280;70018;47.838;16.490;2024-01-30T06:24:50;101192.44;;;-1.68;100.00
55373;BME280;70018;47.838;16.490;2024-01-30T06:27:17;101194.06;;;-1.67;100.00
55373;BME280;70018;47.838;16.490;2024-01-30T06:29:44;101191.97;;;-1.65;100.00
55373;BME280;70018;47.838;16.490;2024-01-30T06:32:11;101192.09;;;-1.60;100.00
55373;BME280;70018;47.838;16.490;2024-01-30T06:34:37;101199.69;;;-1.57;100.00
55373;BME280;70018;47.838;16.490;2024-01-30T06:37:06;101208.41;;;-1.55;100.00
55373;BME280;70018;47.838;16.490;2024-01-30T06:39:33;101206.75;;;-1.56;100.00
55373;BME280;70018;47.838;16.490;2024-01-30T06:42:00;101203.91;;;-1.49;100.00
55373;BME280;70018;47.838;16.490;2024-01-30T06:44:26;101205.31;;;-1.47;100.00
55373;BME280;70018;47.838;16.490;2024-01-30T06:46:56;101209.66;;;-1.46;100.00
55373;BME280;70018;47.838;16.490;2024-01-30T06:49:22;101219.75;;;-1.41;100.00
55373;BME280;70018;47.838;16.490;2024-01-30T06:51:49;101226.31;;;-1.37;100.00
55373;BME280;70018;47.838;16.490;2024-01-30T06:54:16;101226.19;;;-1.31;100.00
55373;BME280;70018;47.838;16.490;2024-01-30T06:56:43;101220.00;;;-1.14;100.00
55373;BME280;70018;47.838;16.490;2024-01-30T06:59:10;101231.25;;;-1.06;100.00
55373;BME280;70018;47.838;16.490;2024-01-30T07:01:36;101231.00;;;-1.04;100.00
55373;BME280;70018;47.838;16.490;2024-01-30T07:04:03;101224.47;;;-1.08;100.00
55373;BME280;70018;47.838;16.490;2024-01-30T07:06:30;101237.41;;;-1.10;100.00
55373;BME280;70018;47.838;16.490;2024-01-30T07:08:57;101231.72;;;-0.97;100.00
55373;BME280;70018;47.838;16.490;2024-01-30T07:11:24;101240.50;;;-0.90;100.00
55373;BME280;70018;47.838;16.490;2024-01-30T07:13:51;101230.06;;;-0.98;100.00
55373;BME280;70018;47.838;16.490;2024-01-30T07:16:17;101241.94;;;-0.99;100.00
55373;BME280;70018;47.838;16.490;2024-01-30T07:18:44;101242.53;;;-0.97;99.79
55373;BME280;70018;47.838;16.490;2024-01-30T07:21:11;101234.16;;;-0.96;99.76
55373;BME280;70018;47.838;16.490;2024-01-30T07:23:38;101250.81;;;-0.87;99.26
55373;BME280;70018;47.838;16.490;2024-01-30T07:26:08;101238.78;;;-0.80;99.21
55373;BME280;70018;47.838;16.490;2024-01-30T07:28:35;101241.66;;;-0.70;99.31
55373;BME280;70018;47.838;16.490;2024-01-30T07:31:02;101242.09;;;-0.61;98.61
55373;BME280;70018;47.838;16.490;2024-01-30T07:33:29;101241.16;;;-0.55;98.12
55373;BME280;70018;47.838;16.490;2024-01-30T07:35:56;101243.22;;;-0.45;97.76
55373;BME280;70018;47.838;16.490;2024-01-30T07:38:24;101232.78;;;-0.37;96.96
55373;BME280;70018;47.838;16.490;2024-01-30T07:40:51;101236.75;;;-0.28;96.82
55373;BME280;70018;47.838;16.490;2024-01-30T07:43:17;101232.81;;;-0.20;96.48
55373;BME280;70018;47.838;16.490;2024-01-30T07:45:44;101240.19;;;-0.16;95.21
55373;BME280;70018;47.838;16.490;2024-01-30T07:48:11;101240.81;;;-0.09;95.38
55373;BME280;70018;47.838;16.490;2024-01-30T07:50:38;101240.16;;;0.01;95.24
55373;BME280;70018;47.838;16.490;2024-01-30T07:53:04;101240.81;;;0.08;95.04
55373;BME280;70018;47.838;16.490;2024-01-30T07:55:31;101233.84;;;0.12;94.17
55373;BME280;70018;47.838;16.490;2024-01-30T07:57:59;101243.75;;;0.23;93.76
55373;BME280;70018;47.838;16.490;2024-01-30T08:00:26;101233.38;;;0.37;93.60
55373;BME280;70018;47.838;16.490;2024-01-30T08:02:55;101241.38;;;0.48;92.84
55373;BME280;70018;47.838;16.490;2024-01-30T08:05:23;101239.06;;;0.57;92.20
55373;BME280;70018;47.838;16.490;2024-01-30T08:07:50;101241.38;;;0.70;91.52
55373;BME280;70018;47.838;16.490;2024-01-30T08:10:18;101237.19;;;0.79;91.82
55373;BME280;70018;47.838;16.490;2024-01-30T08:12:45;101237.81;;;0.86;89.63
55373;BME280;70018;47.838;16.490;2024-01-30T08:15:12;101230.84;;;0.95;89.78
55373;BME280;70018;47.838;16.490;2024-01-30T08:17:39;101230.97;;;1.05;89.73
55373;BME280;70018;47.838;16.490;2024-01-30T08:20:06;101233.84;;;1.20;89.72
55373;BME280;70018;47.838;16.490;2024-01-30T08:22:35;101241.03;;;1.32;88.88
55373;BME280;70018;47.838;16.490;2024-01-30T08:25:01;101243.34;;;1.50;88.83
55373;BME280;70018;47.838;16.490;2024-01-30T08:27:28;101237.00;;;1.66;89.17
55373;BME280;70018;47.838;16.490;2024-01-30T08:29:55;101233.81;;;1.74;88.96
55373;BME280;70018;47.838;16.490;2024-01-30T08:32:22;101230.63;;;1.82;88.32
55373;BME280;70018;47.838;16.490;2024-01-30T08:34:50;101223.59;;;1.86;87.36
55373;BME280;70018;47.838;16.490;2024-01-30T08:37:17;101229.13;;;2.01;87.74
55373;BME280;70018;47.838;16.490;2024-01-30T08:39:44;101221.84;;;2.07;87.31
55373;BME280;70018;47.838;16.490;2024-01-30T08:42:11;101223.75;;;2.11;86.67
55373;BME280;70018;47.838;16.490;2024-01-30T08:44:38;101222.69;;;2.17;86.18
55373;BME280;70018;47.838;16.490;2024-01-30T08:47:05;101217.13;;;2.34;86.44
55373;BME280;70018;47.838;16.490;2024-01-30T08:49:32;101223.41;;;2.44;86.12
55373;BME280;70018;47.838;16.490;2024-01-30T08:51:59;101218.03;;;2.54;86.18
55373;BME280;70018;47.838;16.490;2024-01-30T08:54:26;101220.25;;;2.63;85.25
55373;BME280;70018;47.838;16.490;2024-01-30T08:56:52;101225.72;;;2.73;84.19
55373;BME280;70018;47.838;16.490;2024-01-30T08:59:19;101227.41;;;2.79;83.55
55373;BME280;70018;47.838;16.490;2024-01-30T09:01:46;101220.34;;;2.88;82.00
55373;BME280;70018;47.838;16.490;2024-01-30T09:04:28;101225.28;;;3.01;82.41
55373;BME280;70018;47.838;16.490;2024-01-30T09:06:55;101228.06;;;3.11;81.88
55373;BME280;70018;47.838;16.490;2024-01-30T09:09:22;101235.72;;;3.24;81.80
55373;BME280;70018;47.838;16.490;2024-01-30T09:11:49;101232.97;;;3.34;81.05
55373;BME280;70018;47.838;16.490;2024-01-30T09:14:15;101236.00;;;3.43;82.39
55373;BME280;70018;47.838;16.490;2024-01-30T09:16:42;101230.84;;;3.51;80.21
55373;BME280;70018;47.838;16.490;2024-01-30T09:19:09;101230.84;;;3.56;80.08
55373;BME280;70018;47.838;16.490;2024-01-30T09:21:36;101229.22;;;3.65;80.26
55373;BME280;70018;47.838;16.490;2024-01-30T09:24:03;101235.22;;;3.67;78.22
55373;BME280;70018;47.838;16.490;2024-01-30T09:26:32;101231.13;;;3.75;76.92
55373;BME280;70018;47.838;16.490;2024-01-30T09:28:59;101233.56;;;3.81;77.82
55373;BME280;70018;47.838;16.490;2024-01-30T09:31:26;101224.03;;;3.99;77.26
55373;BME280;70018;47.838;16.490;2024-01-30T09:33:52;101239.00;;;4.12;77.73
55373;BME280;70018;47.838;16.490;2024-01-30T09:36:21;101239.00;;;4.27;77.81
55373;BME280;70018;47.838;16.490;2024-01-30T09:38:48;101230.53;;;4.38;78.05
55373;BME280;70018;47.838;16.490;2024-01-30T09:41:15;101228.03;;;4.47;78.00
55373;BME280;70018;47.838;16.490;2024-01-30T09:43:47;101227.19;;;4.56;77.62
55373;BME280;70018;47.838;16.490;2024-01-30T09:46:16;101221.44;;;4.63;76.64
55373;BME280;70018;47.838;16.490;2024-01-30T09:48:46;101231.22;;;4.74;75.58
55373;BME280;70018;47.838;16.490;2024-01-30T09:51:14;101228.22;;;4.76;76.24
55373;BME280;70018;47.838;16.490;2024-01-30T09:53:42;101218.66;;;4.83;74.71
55373;BME280;70018;47.838;16.490;2024-01-30T09:56:12;101212.00;;;4.99;75.75
55373;BME280;70018;47.838;16.490;2024-01-30T09:58:39;101220.22;;;4.94;74.73
55373;BME280;70018;47.838;16.490;2024-01-30T10:01:08;101222.38;;;5.02;74.89
55373;BME280;70018;47.838;16.490;2024-01-30T10:03:35;101225.03;;;5.12;75.11
55373;BME280;70018;47.838;16.490;2024-01-30T10:06:02;101217.34;;;5.19;74.36
55373;BME280;70018;47.838;16.490;2024-01-30T10:08:29;101212.88;;;5.34;73.71
55373;BME280;70018;47.838;16.490;2024-01-30T10:10:56;101224.13;;;5.27;71.09
55373;BME280;70018;47.838;16.490;2024-01-30T10:13:25;101227.59;;;5.43;72.72
55373;BME280;70018;47.838;16.490;2024-01-30T10:15:52;101224.72;;;5.63;72.48
55373;BME280;70018;47.838;16.490;2024-01-30T10:18:19;101223.22;;;5.86;70.98
55373;BME280;70018;47.838;16.490;2024-01-30T10:20:46;101212.94;;;6.01;72.09
55373;BME280;70018;47.838;16.490;2024-01-30T10:23:13;101211.66;;;6.22;71.57
55373;BME280;70018;47.838;16.490;2024-01-30T10:25:40;101207.63;;;6.15;70.00
55373;BME280;70018;47.838;16.490;2024-01-30T10:28:07;101206.75;;;6.19;71.01
55373;BME280;70018;47.838;16.490;2024-01-30T10:30:34;101200.53;;;6.37;71.10
55373;BME280;70018;47.838;16.490;2024-01-30T10:33:00;101204.22;;;6.52;70.65
55373;BME280;70018;47.838;16.490;2024-01-30T10:35:27;101202.53;;;6.56;69.38
55373;BME280;70018;47.838;16.490;2024-01-30T10:37:56;101191.69;;;6.45;68.55
55373;BME280;70018;47.838;16.490;2024-01-30T10:40:28;101193.56;;;6.50;68.70
55373;BME280;70018;47.838;16.490;2024-01-30T10:42:55;101195.94;;;6.57;67.57
55373;BME280;70018;47.838;16.490;2024-01-30T10:45:26;101195.81;;;6.67;68.03
55373;BME280;70018;47.838;16.490;2024-01-30T10:47:55;101188.88;;;6.74;68.14
55373;BME280;70018;47.838;16.490;2024-01-30T10:50:25;101184.50;;;6.73;67.51
55373;BME280;70018;47.838;16.490;2024-01-30T10:52:54;101187.59;;;6.90;67.53
55373;BME280;70018;47.838;16.490;2024-01-30T10:55:21;101183.97;;;6.95;66.29
55373;BME280;70018;47.838;16.490;2024-01-30T10:57:50;101182.91;;;6.91;66.29
55373;BME280;70018;47.838;16.490;2024-01-30T11:00:17;101182.75;;;7.01;66.84
55373;BME280;70018;47.838;16.490;2024-01-30T11:02:46;101184.41;;;7.02;65.88
55373;BME280;70018;47.838;16.490;2024-01-30T11:05:13;101176.25;;;6.97;65.79
55373;BME280;70018;47.838;16.490;2024-01-30T11:07:42;101177.22;;;7.06;66.24
55373;BME280;70018;47.838;16.490;2024-01-30T11:10:09;101171.97;;;7.09;65.48
55373;BME280;70018;47.838;16.490;2024-01-30T11:12:40;101169.28;;;7.23;65.73
55373;BME280;70018;47.838;16.490;2024-01-30T11:20:35;101162.84;;;7.51;65.24
55373;BME280;70018;47.838;16.490;2024-01-30T11:23:11;101157.50;;;7.60;65.15
55373;BME280;70018;47.838;16.490;2024-01-30T11:25:38;101153.44;;;7.57;64.10
55373;BME280;70018;47.838;16.490;2024-01-30T11:28:05;101148.16;;;7.61;63.62
55373;BME280;70018;47.838;16.490;2024-01-30T11:30:32;101147.03;;;7.62;63.95
55373;BME280;70018;47.838;16.490;2024-01-30T11:33:05;101151.28;;;7.87;64.30
55373;BME280;70018;47.838;16.490;2024-01-30T11:35:44;101139.06;;;7.79;63.54
55373;BME280;70018;47.838;16.490;2024-01-30T11:38:14;101148.44;;;7.92;63.25
55373;BME280;70018;47.838;16.490;2024-01-30T11:40:41;101139.69;;;7.90;63.42
55373;BME280;70018;47.838;16.490;2024-01-30T11:43:09;101144.16;;;7.86;62.35
55373;BME280;70018;47.838;16.490;2024-01-30T11:45:36;101146.63;;;8.01;62.42
55373;BME280;70018;47.838;16.490;2024-01-30T11:48:03;101145.91;;;8.09;62.00
55373;BME280;70018;47.838;16.490;2024-01-30T11:50:38;101133.94;;;8.05;61.93
55373;BME280;70018;47.838;16.490;2024-01-30T11:53:05;101138.00;;;8.21;62.45
55373;BME280;70018;47.838;16.490;2024-01-30T11:55:33;101132.50;;;8.21;62.29
55373;BME280;70018;47.838;16.490;2024-01-30T11:58:01;101130.63;;;8.35;62.13
55373;BME280;70018;47.838;16.490;2024-01-30T12:00:29;101120.66;;;8.39;61.58
55373;BME280;70018;47.838;16.490;2024-01-30T12:02:57;101129.81;;;8.48;61.73
55373;BME280;70018;47.838;16.490;2024-01-30T12:05:27;101116.69;;;8.45;61.16
55373;BME280;70018;47.838;16.490;2024-01-30T12:07:54;101121.06;;;8.46;61.26
55373;BME280;70018;47.838;16.490;2024-01-30T12:10:22;101121.06;;;8.46;60.77
55373;BME280;70018;47.838;16.490;2024-01-30T12:12:52;101118.22;;;8.51;60.70
55373;BME280;70018;47.838;16.490;2024-01-30T12:15:21;101121.66;;;8.43;60.76
55373;BME280;70018;47.838;16.490;2024-01-30T12:17:48;101117.91;;;8.39;60.77
55373;BME280;70018;47.838;16.490;2024-01-30T12:20:18;101114.97;;;8.49;60.32
55373;BME280;70018;47.838;16.490;2024-01-30T12:22:49;101110.91;;;8.47;60.66
55373;BME280;70018;47.838;16.490;2024-01-30T12:25:18;101108.47;;;8.31;59.97
55373;BME280;70018;47.838;16.490;2024-01-30T12:27:47;101116.81;;;8.40;60.92
55373;BME280;70018;47.838;16.490;2024-01-30T12:30:18;101108.25;;;8.41;60.07
55373;BME280;70018;47.838;16.490;2024-01-30T12:32:49;101112.22;;;8.49;60.19
55373;BME280;70018;47.838;16.490;2024-01-30T12:35:19;101116.19;;;8.57;59.70
55373;BME280;70018;47.838;16.490;2024-01-30T12:37:48;101101.03;;;8.59;59.17
55373;BME280;70018;47.838;16.490;2024-01-30T12:40:15;101107.13;;;8.56;59.00
55373;BME280;70018;47.838;16.490;2024-01-30T12:42:43;101113.72;;;8.55;59.48
55373;BME280;70018;47.838;16.490;2024-01-30T12:45:09;101116.38;;;8.60;58.52
55373;BME280;70018;47.838;16.490;2024-01-30T12:47:37;101109.66;;;8.66;58.90